This is the latest recevied weather packets stored in our database for station/object SR6WXP. If no packets are shown the sender has not sent any weather packets the latest 1 day(s).
| Time | Temp. | Humidity | Pressure | Rain* | Wind** | Luminosity | Snow |
|---|---|---|---|---|---|---|---|
| 1777970517 | 21.11° C | 41% | 985.5 hPa | - | 3.58 m/s, 124° | - | - |
| 1777970275 | 21.11° C | 41% | 985.6 hPa | - | 4.02 m/s, 128° | - | - |
| 1777970033 | 21.11° C | 41% | 985.6 hPa | - | 4.47 m/s, 121° | - | - |
| 1777969793 | 21.11° C | 41% | 985.5 hPa | - | 4.47 m/s, 105° | - | - |
| 1777969553 | 21.11° C | 41% | 985.6 hPa | - | 3.13 m/s, 129° | - | - |
| 1777969313 | 21.11° C | 41% | 985.6 hPa | - | 3.58 m/s, 139° | - | - |
| 1777969073 | 21.11° C | 41% | 985.7 hPa | - | 2.68 m/s, 151° | - | - |
| 1777968831 | 20.56° C | 42% | 985.7 hPa | - | 3.13 m/s, 136° | - | - |
| 1777968591 | 20.56° C | 42% | 985.7 hPa | - | 2.68 m/s, 118° | - | - |
| 1777968348 | 20.56° C | 42% | 985.7 hPa | - | 5.36 m/s, 113° | - | - |
| 1777968108 | 20.56° C | 42% | 985.7 hPa | - | 2.68 m/s, 145° | - | - |
| 1777967869 | 20.56° C | 43% | 985.8 hPa | - | 2.24 m/s, 127° | - | - |
| 1777967627 | 20° C | 43% | 985.8 hPa | - | 2.68 m/s, 118° | - | - |
| 1777967387 | 20° C | 43% | 985.8 hPa | - | 2.68 m/s, 118° | - | - |
| 1777967147 | 20° C | 43% | 985.9 hPa | - | 1.79 m/s, 128° | - | - |
| 1777966907 | 20° C | 43% | 985.8 hPa | - | 3.13 m/s, 111° | - | - |
| 1777966667 | 20° C | 43% | 985.9 hPa | - | 3.13 m/s, 117° | - | - |
| 1777966417 | 20° C | 43% | 985.9 hPa | - | 3.58 m/s, 115° | - | - |
| 1777966174 | 19.44° C | 43% | 985.9 hPa | - | 2.24 m/s, 126° | - | - |
| 1777965933 | 19.44° C | 43% | 986 hPa | - | 2.68 m/s, 117° | - | - |
| 1777965692 | 19.44° C | 44% | 986 hPa | - | 2.24 m/s, 120° | - | - |
| 1777965452 | 19.44° C | 44% | 986 hPa | - | 1.79 m/s, 113° | - | - |
| 1777965210 | 19.44° C | 44% | 986 hPa | - | 2.24 m/s, 109° | - | - |
| 1777964971 | 19.44° C | 44% | 986.1 hPa | - | 2.68 m/s, 120° | - | - |
| 1777964731 | 19.44° C | 44% | 986.1 hPa | - | 2.68 m/s, 114° | - | - |
* Rain since midnight (hover to see other rain measurements)
** Current wind speed in m/s (hover to see current wind gust speed)